createdAt,value
2022-08-17T00:00:33.306Z,642.97
2022-08-17T00:02:56.816Z,650.70
2022-08-17T00:05:24.307Z,644.97
2022-08-17T00:07:50.990Z,643.07
2022-08-17T00:10:17.525Z,639.13
2022-08-17T00:12:44.774Z,654.40
2022-08-17T00:15:11.387Z,651.70
2022-08-17T00:17:37.836Z,653.70
2022-08-17T00:20:04.289Z,643.63
2022-08-17T00:22:34.522Z,652.03
2022-08-17T00:25:02.507Z,651.77
2022-08-17T00:27:28.970Z,646.10
2022-08-17T00:29:55.400Z,649.57
2022-08-17T00:33:10.958Z,644.97
2022-08-17T00:35:08.520Z,641.60
2022-08-17T00:37:34.993Z,636.40
2022-08-17T00:40:01.484Z,648.30
2022-08-17T00:42:31.113Z,640.67
2022-08-17T00:44:57.828Z,643.10
2022-08-17T00:47:24.260Z,643.37
2022-08-17T00:49:53.055Z,640.00
2022-08-17T00:52:19.484Z,642.77
2022-08-17T00:54:45.915Z,637.13
2022-08-17T00:57:12.394Z,640.23
2022-08-17T00:59:38.826Z,648.57
2022-08-17T01:02:05.300Z,634.60
2022-08-17T01:04:31.754Z,647.23
2022-08-17T01:06:58.189Z,638.30
2022-08-17T01:09:24.667Z,634.97
2022-08-17T01:11:51.140Z,643.07
2022-08-17T01:14:17.608Z,632.97
2022-08-17T01:16:44.072Z,647.40
2022-08-17T01:19:10.517Z,644.97
2022-08-17T01:21:37.018Z,641.87
2022-08-17T01:24:03.474Z,649.90
2022-08-17T01:26:30.185Z,631.73
2022-08-17T01:28:56.668Z,635.50
2022-08-17T01:31:23.117Z,642.17
2022-08-17T01:33:49.588Z,641.27
2022-08-17T01:36:16.050Z,637.40
2022-08-17T01:38:42.537Z,648.73
2022-08-17T01:41:09.062Z,644.33
2022-08-17T01:43:35.528Z,647.03
2022-08-17T01:46:03.464Z,616.23
2022-08-17T01:48:30.413Z,642.20
2022-08-17T01:50:56.881Z,640.30
2022-08-17T01:53:23.333Z,635.27
2022-08-17T01:55:49.856Z,634.87
2022-08-17T01:58:16.351Z,632.60
2022-08-17T02:00:59.990Z,646.00
2022-08-17T02:03:27.582Z,601.93
2022-08-17T02:05:54.030Z,627.83
2022-08-17T02:08:20.510Z,655.50
2022-08-17T02:11:05.823Z,629.27
2022-08-17T02:13:37.959Z,647.73
2022-08-17T02:16:04.386Z,604.17
2022-08-17T02:18:30.861Z,648.20
2022-08-17T02:20:57.295Z,633.67
2022-08-17T02:23:23.817Z,642.90
2022-08-17T02:25:50.272Z,614.37
2022-08-17T02:28:16.733Z,640.47
2022-08-17T02:31:01.255Z,623.97
2022-08-17T02:33:41.485Z,603.80
2022-08-17T02:36:08.838Z,632.57
2022-08-17T02:38:35.298Z,628.67
2022-08-17T02:41:01.747Z,632.67
2022-08-17T02:43:28.218Z,628.60
2022-08-17T02:45:54.663Z,632.93
2022-08-17T02:48:30.579Z,633.17
2022-08-17T02:50:57.759Z,624.07
2022-08-17T02:53:24.194Z,627.70
2022-08-17T02:55:52.216Z,637.40
2022-08-17T02:58:34.423Z,636.67
2022-08-17T03:01:02.036Z,626.27
2022-08-17T03:03:28.483Z,627.40
2022-08-17T03:05:54.938Z,634.23
2022-08-17T03:08:21.699Z,633.20
2022-08-17T03:10:48.149Z,623.50
2022-08-17T03:13:14.594Z,646.23
2022-08-17T03:15:41.521Z,608.53
2022-08-17T03:18:18.849Z,636.90
2022-08-17T03:20:51.593Z,629.77
2022-08-17T03:23:18.051Z,621.87
2022-08-17T03:25:44.482Z,626.37
2022-08-17T03:28:12.212Z,621.03
2022-08-17T03:30:38.674Z,628.30
2022-08-17T03:33:05.139Z,623.40
2022-08-17T03:35:31.604Z,633.67
2022-08-17T03:38:00.471Z,635.03
2022-08-17T03:40:34.519Z,637.10
2022-08-17T03:43:13.870Z,630.20
2022-08-17T03:45:42.096Z,612.23
2022-08-17T03:48:09.700Z,636.40
2022-08-17T03:50:36.130Z,635.17
2022-08-17T03:53:02.570Z,634.63
2022-08-17T03:55:35.819Z,623.90
2022-08-17T03:58:02.729Z,627.60
2022-08-17T04:00:29.210Z,631.20
2022-08-17T04:02:55.676Z,636.90
2022-08-17T04:05:22.147Z,635.50
2022-08-17T04:07:48.600Z,640.23
2022-08-17T04:10:15.039Z,631.70
2022-08-17T04:12:41.701Z,626.73
2022-08-17T04:15:08.134Z,629.93
2022-08-17T04:17:34.596Z,625.07
2022-08-17T04:20:01.055Z,627.67
2022-08-17T04:22:32.656Z,627.97
2022-08-17T04:25:00.520Z,628.83
2022-08-17T04:27:27.162Z,633.43
2022-08-17T04:29:54.905Z,623.50
2022-08-17T04:33:00.844Z,626.70
2022-08-17T04:35:08.889Z,621.37
2022-08-17T04:37:35.352Z,630.80
2022-08-17T04:40:04.089Z,618.40
2022-08-17T04:42:30.862Z,629.40
2022-08-17T04:44:57.306Z,621.70
2022-08-17T04:47:23.784Z,638.60
2022-08-17T04:49:50.247Z,636.53
2022-08-17T04:52:29.744Z,622.40
2022-08-17T04:55:03.152Z,627.23
2022-08-17T04:57:29.618Z,622.00
2022-08-17T05:00:05.970Z,620.03
2022-08-17T05:02:32.549Z,631.73
2022-08-17T05:04:59.025Z,618.53
2022-08-17T05:07:31.307Z,628.10
2022-08-17T05:09:58.471Z,632.30
2022-08-17T05:12:24.928Z,636.50
2022-08-17T05:14:51.364Z,627.07
2022-08-17T05:17:17.827Z,623.17
2022-08-17T05:19:47.603Z,634.83
2022-08-17T05:22:16.590Z,631.57
2022-08-17T05:24:50.428Z,632.67
2022-08-17T05:27:20.468Z,632.00
2022-08-17T05:29:46.891Z,622.23
2022-08-17T05:32:39.509Z,624.27
2022-08-17T05:35:00.186Z,628.57
2022-08-17T05:37:26.751Z,629.73
2022-08-17T05:39:53.261Z,624.07
2022-08-17T05:42:20.025Z,628.57
2022-08-17T05:44:46.485Z,628.47
2022-08-17T05:47:12.953Z,641.33
2022-08-17T05:49:39.489Z,622.57
2022-08-17T05:52:05.932Z,630.80
2022-08-17T05:54:32.429Z,627.13
2022-08-17T05:56:58.886Z,622.33
2022-08-17T05:59:25.525Z,637.13
2022-08-17T06:01:51.996Z,633.07
2022-08-17T06:04:18.566Z,639.57
2022-08-17T06:06:44.999Z,637.00
2022-08-17T06:09:11.490Z,633.07
2022-08-17T06:11:38.027Z,625.17
2022-08-17T06:14:04.545Z,603.33
2022-08-17T06:16:34.479Z,634.20
2022-08-17T06:19:01.260Z,624.77
2022-08-17T06:21:32.069Z,623.20
2022-08-17T06:23:58.763Z,629.37
2022-08-17T06:26:25.897Z,627.07
2022-08-17T06:29:00.974Z,615.70
2022-08-17T06:31:27.424Z,622.27
2022-08-17T06:33:53.898Z,634.20
2022-08-17T06:36:20.354Z,620.40
2022-08-17T06:38:48.160Z,629.13
2022-08-17T06:41:14.601Z,609.77
2022-08-17T06:43:44.000Z,633.70
2022-08-17T06:46:12.641Z,629.03
2022-08-17T06:48:39.120Z,610.53
2022-08-17T06:51:05.600Z,635.87
2022-08-17T06:53:32.545Z,620.37
2022-08-17T06:55:58.987Z,622.80
2022-08-17T06:58:29.537Z,628.23
2022-08-17T07:00:58.740Z,625.30
2022-08-17T07:03:25.448Z,620.70
2022-08-17T07:05:51.894Z,624.17
2022-08-17T07:08:18.351Z,628.60
2022-08-17T07:10:44.827Z,599.73
2022-08-17T07:13:11.285Z,622.90
2022-08-17T07:15:37.788Z,612.47
2022-08-17T07:18:04.270Z,613.50
2022-08-17T07:20:30.747Z,619.17
2022-08-17T07:22:59.718Z,625.00
2022-08-17T07:25:26.990Z,614.67
2022-08-17T07:27:53.438Z,622.13
2022-08-17T07:30:19.877Z,615.03
2022-08-17T07:32:46.430Z,614.87
2022-08-17T07:35:12.868Z,619.37
2022-08-17T07:37:41.985Z,612.90
2022-08-17T07:40:16.367Z,625.67
2022-08-17T07:42:45.139Z,620.87
2022-08-17T07:45:13.278Z,614.07
2022-08-17T07:47:39.757Z,620.00
2022-08-17T07:50:06.204Z,613.57
2022-08-17T07:52:51.071Z,612.93
2022-08-17T07:55:18.500Z,605.87
2022-08-17T07:57:44.959Z,605.37
2022-08-17T08:00:16.263Z,612.87
2022-08-17T08:02:43.047Z,619.00
2022-08-17T08:05:10.102Z,603.27
2022-08-17T08:07:36.641Z,620.67
2022-08-17T08:10:03.084Z,618.97
2022-08-17T08:12:32.715Z,618.50
2022-08-17T08:15:00.031Z,617.80
2022-08-17T08:17:26.486Z,620.00
2022-08-17T08:19:53.169Z,620.20
2022-08-17T08:22:19.608Z,610.00
2022-08-17T08:24:46.116Z,621.23
2022-08-17T08:27:12.639Z,616.83
2022-08-17T08:29:39.149Z,614.80
2022-08-17T08:32:05.819Z,620.00
2022-08-17T08:34:44.492Z,607.33
2022-08-17T08:37:25.152Z,609.53
2022-08-17T08:39:59.295Z,605.17
2022-08-17T08:42:26.025Z,611.27
2022-08-17T08:45:00.663Z,599.73
2022-08-17T08:47:31.380Z,611.00
2022-08-17T08:50:04.483Z,589.47
2022-08-17T08:52:31.773Z,608.43
2022-08-17T08:54:58.247Z,583.90
2022-08-17T08:57:29.421Z,611.53
2022-08-17T08:59:59.467Z,604.87
2022-08-17T09:02:25.920Z,595.07
2022-08-17T09:05:13.448Z,606.87
2022-08-17T09:07:38.890Z,605.57
2022-08-17T09:10:05.419Z,584.63
2022-08-17T09:12:31.879Z,612.37
2022-08-17T09:14:58.337Z,618.00
2022-08-17T09:17:24.783Z,604.90
2022-08-17T09:19:51.286Z,590.97
2022-08-17T09:22:17.782Z,613.70
2022-08-17T09:24:44.236Z,602.87
2022-08-17T09:27:10.676Z,601.10
2022-08-17T09:29:37.164Z,607.97
2022-08-17T09:32:03.658Z,606.87
2022-08-17T09:34:33.097Z,618.80
2022-08-17T09:36:59.862Z,586.77
2022-08-17T09:39:26.368Z,605.70
2022-08-17T09:41:52.861Z,612.60
2022-08-17T09:44:23.280Z,606.17
2022-08-17T09:46:50.285Z,609.80
2022-08-17T09:49:16.778Z,597.13
2022-08-17T09:51:43.281Z,605.30
2022-08-17T09:54:37.600Z,611.43
2022-08-17T09:57:11.836Z,599.60
2022-08-17T09:59:42.668Z,582.57
2022-08-17T10:02:09.131Z,605.30
2022-08-17T10:04:39.968Z,608.60
2022-08-17T10:07:06.412Z,597.73
2022-08-17T10:09:32.937Z,598.37
2022-08-17T10:11:59.441Z,612.40
2022-08-17T10:14:36.415Z,609.27
2022-08-17T10:17:09.788Z,580.80
2022-08-17T10:19:36.250Z,598.97
2022-08-17T10:22:32.411Z,597.33
2022-08-17T10:25:22.987Z,577.87
2022-08-17T10:27:35.580Z,603.67
2022-08-17T10:30:02.156Z,599.57
2022-08-17T10:32:28.696Z,611.10
2022-08-17T10:34:55.218Z,614.70
2022-08-17T10:37:21.691Z,605.27
2022-08-17T10:39:52.184Z,617.03
2022-08-17T10:42:30.329Z,614.47
2022-08-17T10:44:59.338Z,602.67
2022-08-17T10:47:25.808Z,602.90
2022-08-17T10:49:52.293Z,611.97
2022-08-17T10:52:18.735Z,597.47
2022-08-17T10:54:45.173Z,575.57
2022-08-17T10:57:11.630Z,606.07
2022-08-17T10:59:38.088Z,609.43
2022-08-17T11:02:04.524Z,598.90
2022-08-17T11:04:30.985Z,609.20
2022-08-17T11:06:57.466Z,597.57
2022-08-17T11:09:23.936Z,571.57
2022-08-17T11:11:50.423Z,588.57
2022-08-17T11:14:16.910Z,600.67
2022-08-17T11:16:43.363Z,609.60
2022-08-17T11:19:09.823Z,606.30
2022-08-17T11:21:36.306Z,607.70
2022-08-17T11:24:02.771Z,605.97
2022-08-17T11:26:29.395Z,579.03
2022-08-17T11:28:55.844Z,606.63
2022-08-17T11:31:22.278Z,612.30
2022-08-17T11:34:05.812Z,583.47
2022-08-17T11:36:32.253Z,573.10
2022-08-17T11:38:58.915Z,603.17
2022-08-17T11:41:25.356Z,603.57
2022-08-17T11:43:51.807Z,607.23
2022-08-17T11:46:18.230Z,607.13
2022-08-17T11:48:44.724Z,615.30
2022-08-17T11:51:11.180Z,602.47
2022-08-17T11:53:37.657Z,608.67
2022-08-17T11:56:04.097Z,605.53
2022-08-17T11:58:30.572Z,613.80
2022-08-17T12:00:57.017Z,610.53
2022-08-17T12:03:23.544Z,608.50
2022-08-17T12:05:50.039Z,603.87
2022-08-17T12:08:16.470Z,621.57
2022-08-17T12:10:42.910Z,609.93
2022-08-17T12:13:09.343Z,616.47
2022-08-17T12:15:35.787Z,615.60
2022-08-17T12:18:02.251Z,613.87
2022-08-17T12:20:28.694Z,611.30
2022-08-17T12:22:55.146Z,614.40
2022-08-17T12:25:21.710Z,608.57
2022-08-17T12:28:06.770Z,614.20
2022-08-17T12:30:34.007Z,602.50
2022-08-17T12:33:00.454Z,608.00
2022-08-17T12:35:26.934Z,612.40
2022-08-17T12:37:53.393Z,608.87
2022-08-17T12:40:19.834Z,611.53
2022-08-17T12:42:46.285Z,588.87
2022-08-17T12:45:12.870Z,608.13
2022-08-17T12:47:39.325Z,607.43
2022-08-17T12:50:05.960Z,612.43
2022-08-17T12:52:32.418Z,608.13
2022-08-17T12:54:58.855Z,591.93
2022-08-17T12:57:25.286Z,610.57
2022-08-17T12:59:51.717Z,600.27
2022-08-17T13:02:18.137Z,606.87
2022-08-17T13:04:44.578Z,611.60
2022-08-17T13:07:11.058Z,614.10
2022-08-17T13:09:40.666Z,610.00
2022-08-17T13:12:07.725Z,601.77
2022-08-17T13:14:34.312Z,618.07
2022-08-17T13:17:00.809Z,589.37
2022-08-17T13:19:39.840Z,613.63
2022-08-17T13:22:07.152Z,607.10
2022-08-17T13:24:38.311Z,614.13
2022-08-17T13:27:07.814Z,605.70
2022-08-17T13:29:34.962Z,606.80
2022-08-17T13:32:04.754Z,619.20
2022-08-17T13:34:31.618Z,605.83
2022-08-17T13:36:59.809Z,618.33
2022-08-17T13:39:26.377Z,615.90
2022-08-17T13:41:52.825Z,601.37
2022-08-17T13:44:19.280Z,612.37
2022-08-17T13:46:45.721Z,607.87
2022-08-17T13:49:18.894Z,584.57
2022-08-17T13:51:45.371Z,607.20
2022-08-17T13:54:11.817Z,613.63
2022-08-17T13:56:39.548Z,582.90
2022-08-17T13:59:06.280Z,608.10
2022-08-17T14:01:32.775Z,611.63
2022-08-17T14:03:59.287Z,590.87
2022-08-17T14:06:52.794Z,609.97
2022-08-17T14:09:12.273Z,612.90
2022-08-17T14:11:38.740Z,611.57
2022-08-17T14:14:05.185Z,612.33
2022-08-17T14:16:31.615Z,619.40
2022-08-17T14:18:58.112Z,609.47
2022-08-17T14:21:24.533Z,609.70
2022-08-17T14:23:54.731Z,619.43
2022-08-17T14:26:21.580Z,597.10
2022-08-17T14:28:54.647Z,610.87
2022-08-17T14:31:23.496Z,609.80
2022-08-17T14:33:50.021Z,617.87
2022-08-17T14:36:16.473Z,619.23
2022-08-17T14:38:42.981Z,608.77
2022-08-17T14:41:09.420Z,623.20
2022-08-17T14:43:35.897Z,610.47
2022-08-17T14:46:02.334Z,620.33
2022-08-17T14:48:28.944Z,617.00
2022-08-17T14:50:55.510Z,614.10
2022-08-17T14:53:22.020Z,593.70
2022-08-17T14:55:48.670Z,624.17
2022-08-17T14:58:15.204Z,613.90
2022-08-17T15:00:41.651Z,613.67
2022-08-17T15:03:08.113Z,613.80
2022-08-17T15:05:34.570Z,623.70
2022-08-17T15:08:01.063Z,614.30
2022-08-17T15:10:27.561Z,598.50
2022-08-17T15:12:54.014Z,624.73
2022-08-17T15:15:20.480Z,615.70
2022-08-17T15:17:46.915Z,625.97
2022-08-17T15:20:15.029Z,624.77
2022-08-17T15:22:41.725Z,621.33
2022-08-17T15:25:08.197Z,592.83
2022-08-17T15:27:34.641Z,621.10
2022-08-17T15:30:01.107Z,625.50
2022-08-17T15:32:27.555Z,621.40
2022-08-17T15:34:54.022Z,623.47
2022-08-17T15:37:20.509Z,620.70
2022-08-17T15:39:47.050Z,622.50
2022-08-17T15:42:13.565Z,632.93
2022-08-17T15:44:40.035Z,613.97
2022-08-17T15:47:06.526Z,617.83
2022-08-17T15:49:33.007Z,610.93
2022-08-17T15:51:59.459Z,607.60
2022-08-17T15:54:26.460Z,619.10
2022-08-17T15:57:01.054Z,622.87
2022-08-17T15:59:27.518Z,613.97
2022-08-17T16:03:14.774Z,594.07
2022-08-17T16:04:43.886Z,616.60
2022-08-17T16:07:10.634Z,618.10
2022-08-17T16:09:37.166Z,608.17
2022-08-17T16:12:03.676Z,611.53
2022-08-17T16:14:33.649Z,608.77
2022-08-17T16:17:01.283Z,614.77
2022-08-17T16:19:27.752Z,607.03
2022-08-17T16:21:54.264Z,617.37
2022-08-17T16:24:20.844Z,611.13
2022-08-17T16:26:47.287Z,604.77
2022-08-17T16:29:13.781Z,608.57
2022-08-17T16:31:40.435Z,611.07
2022-08-17T16:34:18.101Z,617.30
2022-08-17T16:36:53.620Z,614.07
2022-08-17T16:39:22.312Z,621.23
2022-08-17T16:41:48.772Z,621.00
2022-08-17T16:44:15.586Z,611.90
2022-08-17T16:46:45.848Z,625.83
2022-08-17T16:49:12.574Z,625.93
2022-08-17T16:51:56.088Z,614.17
2022-08-17T16:54:22.561Z,605.67
2022-08-17T16:56:49.055Z,598.90
2022-08-17T16:59:30.317Z,615.00
2022-08-17T17:01:58.819Z,602.73
2022-08-17T17:04:25.280Z,616.00
2022-08-17T17:06:51.705Z,611.30
2022-08-17T17:09:19.427Z,609.47
2022-08-17T17:11:46.010Z,606.57
2022-08-17T17:14:12.465Z,613.37
2022-08-17T17:16:44.824Z,613.03
2022-08-17T17:19:11.460Z,603.93
2022-08-17T17:21:37.933Z,610.93
2022-08-17T17:24:05.597Z,612.10
2022-08-17T17:26:32.063Z,607.87
2022-08-17T17:28:58.530Z,612.17
2022-08-17T17:31:25.062Z,621.80
2022-08-17T17:33:51.537Z,619.57
2022-08-17T17:36:17.989Z,621.87
2022-08-17T17:38:44.472Z,623.30
2022-08-17T17:41:10.919Z,617.03
2022-08-17T17:43:40.353Z,614.53
2022-08-17T17:46:26.386Z,607.77
2022-08-17T17:48:53.751Z,608.77
2022-08-17T17:52:02.795Z,614.00
2022-08-17T17:54:06.646Z,602.17
2022-08-17T17:56:42.934Z,617.17
2022-08-17T17:59:12.604Z,616.00
2022-08-17T18:01:39.477Z,607.50
2022-08-17T18:04:20.385Z,618.20
2022-08-17T18:06:47.472Z,606.70
2022-08-17T18:09:18.014Z,586.70
2022-08-17T18:11:45.967Z,593.03
2022-08-17T18:14:18.115Z,609.00
2022-08-17T18:16:44.562Z,613.07
2022-08-17T18:19:11.059Z,608.30
2022-08-17T18:21:37.565Z,605.70
2022-08-17T18:24:04.024Z,616.57
2022-08-17T18:26:30.496Z,617.97
2022-08-17T18:28:58.597Z,621.70
2022-08-17T18:31:25.073Z,609.87
2022-08-17T18:33:51.511Z,616.30
2022-08-17T18:36:17.971Z,619.60
2022-08-17T18:38:44.454Z,613.07
2022-08-17T18:41:10.907Z,622.60
2022-08-17T18:43:53.069Z,609.80
2022-08-17T18:46:28.731Z,602.00
2022-08-17T18:48:55.844Z,614.27
2022-08-17T18:51:37.263Z,608.90
2022-08-17T18:54:08.241Z,614.30
2022-08-17T18:56:34.726Z,615.40
2022-08-17T18:59:01.172Z,610.67
2022-08-17T19:01:52.170Z,620.87
2022-08-17T19:04:14.105Z,611.80
2022-08-17T19:06:40.569Z,600.63
2022-08-17T19:09:06.997Z,608.03
2022-08-17T19:11:33.461Z,611.87
2022-08-17T19:13:59.943Z,609.63
2022-08-17T19:16:26.401Z,621.60
2022-08-17T19:18:52.863Z,613.73
2022-08-17T19:21:19.340Z,608.27
2022-08-17T19:23:53.955Z,617.00
2022-08-17T19:26:50.252Z,598.77
2022-08-17T19:29:07.361Z,607.73
2022-08-17T19:31:36.214Z,602.63
2022-08-17T19:58:17.888Z,613.80
2022-08-17T20:00:44.847Z,617.97
2022-08-17T20:03:16.359Z,619.70
2022-08-17T20:06:01.349Z,623.57
2022-08-17T20:08:29.797Z,617.27
2022-08-17T20:10:56.293Z,623.60
2022-08-17T20:13:33.015Z,574.93
2022-08-17T20:16:00.284Z,607.10
2022-08-17T20:18:26.707Z,622.20
2022-08-17T20:20:54.841Z,622.07
2022-08-17T20:23:22.325Z,613.67
2022-08-17T20:25:48.818Z,611.87
2022-08-17T20:28:15.295Z,621.83
2022-08-17T20:30:42.516Z,616.77
2022-08-17T20:33:08.970Z,615.50
2022-08-17T20:35:39.702Z,612.57
2022-08-17T20:38:06.141Z,617.00
2022-08-17T20:40:32.594Z,618.33
2022-08-17T20:42:59.147Z,603.20
2022-08-17T20:45:25.629Z,620.00
2022-08-17T20:48:18.522Z,615.53
2022-08-17T20:50:38.602Z,610.17
2022-08-17T20:53:05.053Z,620.30
2022-08-17T20:55:31.525Z,608.97
2022-08-17T20:57:59.011Z,605.37
2022-08-17T21:00:25.477Z,612.90
2022-08-17T21:02:51.919Z,610.40
2022-08-17T21:05:18.396Z,619.27
2022-08-17T21:07:44.834Z,609.27
2022-08-17T21:10:11.301Z,620.37
2022-08-17T21:12:37.753Z,615.77
2022-08-17T21:15:04.223Z,609.37
2022-08-17T21:17:39.244Z,598.87
2022-08-17T21:20:13.073Z,622.73
2022-08-17T21:22:39.543Z,614.37
2022-08-17T21:25:06.005Z,616.20
2022-08-17T21:27:32.460Z,615.87
2022-08-17T21:29:58.929Z,624.73
2022-08-17T21:32:25.433Z,612.87
2022-08-17T21:34:51.958Z,622.10
2022-08-17T21:37:18.427Z,616.33
2022-08-17T21:39:44.952Z,611.07
2022-08-17T21:42:11.461Z,599.63
2022-08-17T21:44:37.948Z,620.87
2022-08-17T21:47:04.451Z,607.80
2022-08-17T21:49:30.907Z,621.57
2022-08-17T21:52:04.401Z,592.97
2022-08-17T21:54:30.868Z,615.77
2022-08-17T21:56:57.314Z,618.87
2022-08-17T21:59:23.742Z,619.70
2022-08-17T22:01:50.523Z,613.03
2022-08-17T22:04:17.142Z,610.17
2022-08-17T22:06:56.654Z,613.40
2022-08-17T22:09:23.921Z,622.10
2022-08-17T22:11:50.388Z,611.20
2022-08-17T22:14:16.834Z,612.27
2022-08-17T22:16:43.982Z,597.27
2022-08-17T22:19:10.442Z,617.10
2022-08-17T22:21:36.926Z,606.77
2022-08-17T22:24:03.381Z,607.57
2022-08-17T22:26:29.845Z,609.03
2022-08-17T22:28:56.309Z,610.97
2022-08-17T22:31:22.806Z,620.83
2022-08-17T22:33:49.250Z,625.70
2022-08-17T22:36:15.719Z,621.07
2022-08-17T22:38:43.553Z,593.93
2022-08-17T22:41:10.230Z,603.13
2022-08-17T22:43:36.700Z,612.77
2022-08-17T22:46:03.160Z,618.20
2022-08-17T22:48:29.626Z,619.70
2022-08-17T22:50:56.084Z,603.60
2022-08-17T22:53:22.527Z,626.70
2022-08-17T22:55:48.996Z,607.17
2022-08-17T22:58:15.466Z,619.60
2022-08-17T23:00:41.923Z,590.63
2022-08-17T23:03:08.513Z,618.37
2022-08-17T23:05:35.047Z,604.67
2022-08-17T23:08:01.560Z,618.87
2022-08-17T23:10:28.042Z,607.77
2022-08-17T23:12:54.495Z,617.10
2022-08-17T23:15:20.941Z,610.07
2022-08-17T23:17:47.487Z,616.83
2022-08-17T23:20:14.043Z,615.30
2022-08-17T23:22:51.954Z,605.33
2022-08-17T23:25:19.136Z,615.30
2022-08-17T23:27:47.072Z,617.63
2022-08-17T23:30:13.566Z,607.47
2022-08-17T23:32:53.440Z,613.97
2022-08-17T23:35:20.582Z,606.53
2022-08-17T23:38:07.037Z,610.97
2022-08-17T23:40:33.531Z,603.37
2022-08-17T23:42:59.974Z,614.80
2022-08-17T23:45:31.073Z,612.50
2022-08-17T23:47:57.556Z,613.37
2022-08-17T23:50:24.022Z,615.20
2022-08-17T23:52:56.423Z,602.53
2022-08-17T23:55:22.905Z,602.97
2022-08-17T23:57:49.567Z,601.03
